createdAt,value
2023-03-05T00:00:41.231Z,25.75
2023-03-05T00:04:50.084Z,19.88
2023-03-05T00:08:57.170Z,18.63
2023-03-05T00:13:00.168Z,18.77
2023-03-05T00:17:03.658Z,19.88
2023-03-05T00:21:15.609Z,23.15
2023-03-05T00:25:20.603Z,25.57
2023-03-05T00:29:23.590Z,21.90
2023-03-05T00:33:27.238Z,31.23
2023-03-05T00:37:30.125Z,28.90
2023-03-05T00:41:35.729Z,26.00
2023-03-05T00:45:39.137Z,25.48
2023-03-05T00:49:42.361Z,22.92
2023-03-05T00:53:45.582Z,21.40
2023-03-05T00:57:50.682Z,28.67
2023-03-05T01:01:53.975Z,23.88
2023-03-05T01:05:57.514Z,25.20
2023-03-05T01:10:00.450Z,24.27
2023-03-05T01:14:05.090Z,19.50
2023-03-05T01:18:08.136Z,20.13
2023-03-05T01:22:12.159Z,22.30
2023-03-05T01:26:15.384Z,23.67
2023-03-05T01:30:20.714Z,28.17
2023-03-05T01:34:23.586Z,22.40
2023-03-05T01:38:27.234Z,22.52
2023-03-05T01:42:30.133Z,31.20
2023-03-05T01:46:36.825Z,17.42
2023-03-05T01:50:40.199Z,26.95
2023-03-05T01:54:46.315Z,36.90
2023-03-05T01:58:49.578Z,21.92
2023-03-05T02:02:55.123Z,18.13
2023-03-05T02:06:58.943Z,28.83
2023-03-05T02:11:02.200Z,18.38
2023-03-05T02:15:06.828Z,21.58
2023-03-05T02:19:13.107Z,21.35
2023-03-05T02:23:19.128Z,25.75
2023-03-05T02:27:27.291Z,19.73
2023-03-05T02:31:31.605Z,23.50
2023-03-05T02:35:35.276Z,18.17
2023-03-05T02:39:40.389Z,26.60
2023-03-05T02:43:43.936Z,34.60
2023-03-05T02:47:47.263Z,18.08
2023-03-05T02:51:51.878Z,21.13
2023-03-05T02:55:56.465Z,22.88
2023-03-05T02:59:59.741Z,21.25
2023-03-05T03:04:03.123Z,17.50
2023-03-05T03:08:06.824Z,21.33
2023-03-05T03:12:12.471Z,28.27
2023-03-05T03:16:16.545Z,21.23
2023-03-05T03:20:21.405Z,23.70
2023-03-05T03:24:24.426Z,24.70
2023-03-05T03:28:29.297Z,23.15
2023-03-05T03:32:33.087Z,20.25
2023-03-05T03:36:36.442Z,27.20
2023-03-05T03:40:39.750Z,22.25
2023-03-05T03:44:44.376Z,24.35
2023-03-05T03:48:51.462Z,19.92
2023-03-05T03:52:55.409Z,25.95
2023-03-05T03:56:58.479Z,21.05
2023-03-05T04:01:03.337Z,21.67
2023-03-05T04:05:07.397Z,19.55
2023-03-05T04:09:10.914Z,22.02
2023-03-05T04:13:13.995Z,21.15
2023-03-05T04:17:18.784Z,18.48
2023-03-05T04:21:21.720Z,21.38
2023-03-05T04:25:25.402Z,28.92
2023-03-05T04:29:28.492Z,24.63
2023-03-05T04:33:33.345Z,27.88
2023-03-05T04:37:36.431Z,25.58
2023-03-05T04:41:39.939Z,19.90
2023-03-05T04:45:44.776Z,25.08
2023-03-05T04:49:49.449Z,15.57
2023-03-05T04:53:52.469Z,18.58
2023-03-05T04:57:56.284Z,22.40
2023-03-05T05:01:59.502Z,22.58
2023-03-05T05:06:04.835Z,26.42
2023-03-05T05:10:09.335Z,26.63
2023-03-05T05:14:12.731Z,24.35
2023-03-05T05:18:15.675Z,28.63
2023-03-05T05:22:20.234Z,22.10
2023-03-05T05:26:23.277Z,24.73
2023-03-05T05:30:26.888Z,23.55
2023-03-05T05:34:29.793Z,19.15
2023-03-05T05:38:35.552Z,22.42
2023-03-05T05:42:39.171Z,34.42
2023-03-05T05:46:42.569Z,21.10
2023-03-05T05:51:08.234Z,25.25
2023-03-05T05:55:14.698Z,18.20
2023-03-05T05:59:17.534Z,22.75
2023-03-05T06:03:21.754Z,21.08
2023-03-05T06:07:24.684Z,24.75
2023-03-05T06:11:30.554Z,32.83
2023-03-05T06:15:33.518Z,34.00
2023-03-05T06:19:37.366Z,22.95
2023-03-05T06:23:40.667Z,29.00
2023-03-05T06:27:46.284Z,29.38
2023-03-05T06:31:50.752Z,31.33
2023-03-05T06:35:54.532Z,23.67
2023-03-05T06:39:57.741Z,31.42
2023-03-05T06:44:03.873Z,32.85
2023-03-05T06:48:07.198Z,38.92
2023-03-05T06:52:13.495Z,35.90
2023-03-05T06:56:16.926Z,23.08
2023-03-05T07:00:22.646Z,20.52
2023-03-05T07:04:25.984Z,32.70
2023-03-05T07:08:29.458Z,20.95
2023-03-05T07:12:33.881Z,26.45
2023-03-05T07:16:38.737Z,31.63
2023-03-05T07:20:41.941Z,21.55
2023-03-05T07:24:45.161Z,22.35
2023-03-05T07:28:48.468Z,30.63
2023-03-05T07:32:53.193Z,20.58
2023-03-05T07:36:56.275Z,22.73
2023-03-05T07:41:04.570Z,28.85
2023-03-05T07:45:08.625Z,37.83
2023-03-05T07:49:13.445Z,22.48
2023-03-05T07:53:17.108Z,39.28
2023-03-05T07:57:20.522Z,30.60
2023-03-05T08:01:23.825Z,34.35
2023-03-05T08:05:28.897Z,31.65
2023-03-05T08:09:32.041Z,22.88
2023-03-05T08:13:35.461Z,28.33
2023-03-05T08:17:38.912Z,29.10
2023-03-05T08:21:44.276Z,28.65
2023-03-05T08:25:47.734Z,27.85
2023-03-05T08:29:51.209Z,37.25
2023-03-05T08:33:56.663Z,25.50
2023-03-05T08:38:01.695Z,39.17
2023-03-05T08:42:06.928Z,31.02
2023-03-05T08:46:12.394Z,21.67
2023-03-05T08:50:15.307Z,32.08
2023-03-05T08:54:19.850Z,21.92
2023-03-05T08:58:22.740Z,21.70
2023-03-05T09:02:26.004Z,22.15
2023-03-05T09:06:29.475Z,30.92
2023-03-05T09:10:34.225Z,27.38
2023-03-05T09:14:37.121Z,27.33
2023-03-05T09:18:40.973Z,30.15
2023-03-05T09:22:43.954Z,32.63
2023-03-05T09:26:49.259Z,22.27
2023-03-05T09:30:52.192Z,25.55
2023-03-05T09:34:55.326Z,29.85
2023-03-05T09:38:58.843Z,22.88
2023-03-05T09:43:19.253Z,24.02
2023-03-05T09:47:45.789Z,19.60
2023-03-05T09:51:56.275Z,27.85
2023-03-05T09:56:03.352Z,30.23
2023-03-05T10:00:22.509Z,23.25
2023-03-05T10:04:30.190Z,32.65
2023-03-05T10:08:46.300Z,18.02
2023-03-05T10:12:53.495Z,28.42
2023-03-05T10:17:25.503Z,22.60
2023-03-05T10:21:32.860Z,22.85
2023-03-05T10:25:51.506Z,20.90
2023-03-05T10:30:06.577Z,20.60
2023-03-05T10:34:31.381Z,32.78
2023-03-05T10:39:12.495Z,18.23
2023-03-05T10:43:25.397Z,20.08
2023-03-05T10:51:39.773Z,20.00
2023-03-05T10:55:43.029Z,14.55
2023-03-05T10:59:51.162Z,16.92
2023-03-05T11:03:59.314Z,18.30
2023-03-05T11:08:25.101Z,21.95
2023-03-05T11:12:29.697Z,15.85
2023-03-05T11:16:35.037Z,15.30
2023-03-05T11:20:40.006Z,15.25
2023-03-05T11:24:47.007Z,20.35
2023-03-05T11:29:00.746Z,16.65
2023-03-05T11:33:11.804Z,17.25
2023-03-05T11:37:25.724Z,9.88
2023-03-05T11:41:37.314Z,15.80
2023-03-05T11:45:42.242Z,16.23
2023-03-05T11:49:49.745Z,14.77
2023-03-05T11:53:57.981Z,19.88
2023-03-05T11:58:14.356Z,25.83
2023-03-05T12:02:21.304Z,13.50
2023-03-05T12:06:32.974Z,16.08
2023-03-05T12:10:36.042Z,15.48
2023-03-05T12:14:49.360Z,14.32
2023-03-05T12:19:03.004Z,14.25
2023-03-05T12:23:06.420Z,13.73
2023-03-05T12:27:14.952Z,14.85
2023-03-05T12:31:37.951Z,11.25
2023-03-05T12:35:43.971Z,13.45
2023-03-05T12:39:59.723Z,11.75
2023-03-05T12:44:23.861Z,14.10
2023-03-05T12:48:45.158Z,16.98
2023-03-05T12:52:48.132Z,16.55
2023-03-05T12:56:53.729Z,16.67
2023-03-05T13:01:03.759Z,12.48
2023-03-05T13:05:21.532Z,12.60
2023-03-05T13:09:27.922Z,14.60
2023-03-05T13:13:34.967Z,17.50
2023-03-05T13:17:41.284Z,17.10
2023-03-05T13:21:46.114Z,15.02
2023-03-05T13:26:04.794Z,15.00
2023-03-05T13:30:22.451Z,18.55
2023-03-05T13:34:37.412Z,15.13
2023-03-05T13:38:48.694Z,14.10
2023-03-05T13:42:53.682Z,16.25
2023-03-05T13:47:09.765Z,10.98
2023-03-05T13:51:14.773Z,18.10
2023-03-05T13:55:19.645Z,23.63
2023-03-05T13:59:24.493Z,11.50
2023-03-05T14:03:30.385Z,15.02
2023-03-05T14:07:40.006Z,15.40
2023-03-05T14:11:53.163Z,16.65
2023-03-05T14:16:07.402Z,24.00
2023-03-05T14:20:24.402Z,16.88
2023-03-05T14:24:31.522Z,19.33
2023-03-05T14:28:37.623Z,12.38
2023-03-05T14:32:42.641Z,17.55
2023-03-05T14:36:51.218Z,18.70
2023-03-05T14:40:54.253Z,24.13
2023-03-05T14:45:00.420Z,24.55
2023-03-05T14:49:04.002Z,18.98
2023-03-05T14:53:10.401Z,18.20
2023-03-05T14:57:17.986Z,15.50
2023-03-05T15:01:22.541Z,15.90
2023-03-05T15:05:26.317Z,18.23
2023-03-05T15:09:30.500Z,17.42
2023-03-05T15:13:35.192Z,14.75
2023-03-05T15:25:45.733Z,16.90
2023-03-05T15:29:48.940Z,13.90
2023-03-05T15:33:51.830Z,16.58
2023-03-05T15:37:58.465Z,13.95
2023-03-05T15:42:01.658Z,12.80
2023-03-05T15:46:06.659Z,21.02
2023-03-05T15:50:11.493Z,20.08
2023-03-05T15:54:16.631Z,11.50
2023-03-05T15:58:20.035Z,14.60
2023-03-05T16:02:24.973Z,18.02
2023-03-05T16:06:28.208Z,16.77
2023-03-05T16:10:33.042Z,9.13
2023-03-05T16:14:36.269Z,15.63
2023-03-05T16:18:45.240Z,16.85
2023-03-05T16:22:49.389Z,12.82
2023-03-05T16:26:54.022Z,15.48
2023-03-05T16:30:59.666Z,18.85
2023-03-05T16:35:02.941Z,11.45
2023-03-05T16:39:06.427Z,22.33
2023-03-05T16:43:11.169Z,15.75
2023-03-05T16:47:14.346Z,21.30
2023-03-05T16:51:19.302Z,13.52
2023-03-05T16:55:23.078Z,21.10
2023-03-05T16:59:27.649Z,17.15
2023-03-05T17:03:31.177Z,15.60
2023-03-05T17:07:35.148Z,16.70
2023-03-05T17:11:40.937Z,14.93
2023-03-05T17:15:45.626Z,17.75
2023-03-05T17:19:49.531Z,15.88
2023-03-05T17:23:52.434Z,13.20
2023-03-05T17:27:56.061Z,19.13
2023-03-05T17:32:00.999Z,15.20
2023-03-05T17:36:05.313Z,14.40
2023-03-05T17:40:09.914Z,19.33
2023-03-05T17:44:13.328Z,16.75
2023-03-05T17:48:18.131Z,14.25
2023-03-05T17:52:21.803Z,14.90
2023-03-05T17:56:26.685Z,17.90
2023-03-05T18:00:31.789Z,20.20
2023-03-05T18:04:36.393Z,17.90
2023-03-05T18:08:39.682Z,21.85
2023-03-05T18:12:43.005Z,15.35
2023-03-05T18:16:48.428Z,17.25
2023-03-05T18:20:52.785Z,14.82
2023-03-05T18:24:56.387Z,12.85
2023-03-05T18:28:59.521Z,15.48
2023-03-05T18:33:03.027Z,17.95
2023-03-05T18:37:07.728Z,11.95
2023-03-05T18:41:11.145Z,13.98
2023-03-05T18:45:16.604Z,13.68
2023-03-05T18:49:20.094Z,14.27
2023-03-05T18:53:25.658Z,17.50
2023-03-05T18:57:28.818Z,18.65
2023-03-05T19:01:32.072Z,19.40
2023-03-05T19:05:36.247Z,16.85
2023-03-05T19:09:57.078Z,13.85
2023-03-05T19:14:01.200Z,18.45
2023-03-05T19:18:05.058Z,15.50
2023-03-05T19:22:08.886Z,19.50
2023-03-05T19:26:13.553Z,16.23
2023-03-05T19:30:19.061Z,14.52
2023-03-05T19:34:22.138Z,14.43
2023-03-05T19:38:25.389Z,13.52
2023-03-05T19:42:35.212Z,9.73
2023-03-05T19:46:40.499Z,18.33
2023-03-05T19:50:43.956Z,5.70
2023-03-05T19:54:50.016Z,11.85
2023-03-05T19:58:54.661Z,11.60
2023-03-05T20:02:59.202Z,8.10
2023-03-05T20:07:03.846Z,11.68
2023-03-05T20:11:07.910Z,10.18
2023-03-05T20:15:12.894Z,6.13
2023-03-05T20:19:18.700Z,5.55
2023-03-05T20:23:22.188Z,5.82
2023-03-05T20:27:25.379Z,7.78
2023-03-05T20:31:30.249Z,6.78
2023-03-05T20:35:34.739Z,8.77
2023-03-05T20:39:37.643Z,6.88
2023-03-05T20:43:45.400Z,10.73
2023-03-05T20:47:49.672Z,7.55
2023-03-05T20:51:53.168Z,6.53
2023-03-05T20:55:56.392Z,11.65
2023-03-05T21:00:00.282Z,9.35
2023-03-05T21:04:05.551Z,6.50
2023-03-05T21:08:08.853Z,4.75
2023-03-05T21:12:12.058Z,6.05
2023-03-05T21:16:18.114Z,10.00
2023-03-05T21:20:24.671Z,10.73
2023-03-05T21:25:16.636Z,8.25
2023-03-05T21:29:19.630Z,8.60
2023-03-05T21:33:25.239Z,12.65
2023-03-05T21:37:30.257Z,9.68
2023-03-05T21:41:34.028Z,9.55
2023-03-05T21:45:37.102Z,7.18
2023-03-05T21:49:41.103Z,11.63
2023-03-05T21:53:45.927Z,11.80
2023-03-05T21:57:49.056Z,8.05
2023-03-05T22:01:52.664Z,7.78
2023-03-05T22:05:56.442Z,9.02
2023-03-05T22:10:00.833Z,6.35
2023-03-05T22:14:04.292Z,10.68
2023-03-05T22:18:07.301Z,10.13
2023-03-05T22:22:10.566Z,14.35
2023-03-05T22:26:15.334Z,7.72
2023-03-05T22:30:18.702Z,9.60
2023-03-05T22:34:21.664Z,13.07
2023-03-05T22:38:26.288Z,20.92
2023-03-05T22:42:30.980Z,14.00
2023-03-05T22:46:34.624Z,11.80
2023-03-05T22:50:37.762Z,14.15
2023-03-05T22:54:41.216Z,10.48
2023-03-05T22:58:45.742Z,13.43
2023-03-05T23:02:49.632Z,11.43
2023-03-05T23:06:52.624Z,11.60
2023-03-05T23:10:55.859Z,14.05
2023-03-05T23:15:02.122Z,13.93
2023-03-05T23:19:06.606Z,12.55
2023-03-05T23:23:09.581Z,9.82
2023-03-05T23:27:16.664Z,13.32
2023-03-05T23:31:21.292Z,18.42
2023-03-05T23:35:27.190Z,10.07
2023-03-05T23:39:30.273Z,13.00
2023-03-05T23:43:33.550Z,10.55
2023-03-05T23:47:37.955Z,18.88
2023-03-05T23:51:41.639Z,14.10
2023-03-05T23:55:45.739Z,16.67
2023-03-05T23:59:48.988Z,19.38
